Time;durP1;ratioP1;P1;durP2;ratioP2;P2;SDS_P1;SDS_P2;PMS_P1;PMS_P2;Temp;Humidity;BMP_temperature;BMP_pressure;BME280_temperature;BME280_humidity;BME280_pressure;Samples;Min_cycle;Max_cycle;Signal;HPM_P1;HPM_P2
2021/01/07 00:02:23;;;;;;;95.20;55.17;;;;;;;;;;5071563;28;20094;-68
2021/01/07 00:04:49;;;;;;;84.47;50.10;;;;;;;;;;5072807;28;20497;-67
2021/01/07 00:07:14;;;;;;;94.90;53.42;;;;;;;;;;5072734;28;20076;-67
2021/01/07 00:09:40;;;;;;;89.90;49.63;;;;;;;;;;5072812;28;20079;-67
2021/01/07 00:12:07;;;;;;;81.95;47.75;;;;;;;;;;5073058;28;20422;-67
2021/01/07 00:14:32;;;;;;;96.97;54.55;;;;;;;;;;5072700;28;20036;-67
2021/01/07 00:16:58;;;;;;;97.20;56.22;;;;;;;;;;5055095;28;20495;-66
2021/01/07 00:19:23;;;;;;;98.63;56.53;;;;;;;;;;5034898;28;20547;-66
2021/01/07 00:21:49;;;;;;;102.40;58.17;;;;;;;;;;5052211;28;20398;-66
2021/01/07 00:24:14;;;;;;;104.70;58.70;;;;;;;;;;5052684;28;20029;-67
2021/01/07 00:26:43;;;;;;;90.95;53.10;;;;;;;;;;5055735;28;20084;-67
2021/01/07 00:29:09;;;;;;;89.00;53.20;;;;;;;;;;5055057;28;20013;-67
2021/01/07 00:31:34;;;;;;;87.82;52.53;;;;;;;;;;5056385;28;20037;-67
2021/01/07 00:34:00;;;;;;;87.93;48.50;;;;;;;;;;5056095;28;20025;-67
2021/01/07 00:36:26;;;;;;;85.35;45.72;;;;;;;;;;5056210;28;20041;-68
2021/01/07 00:38:51;;;;;;;81.93;44.08;;;;;;;;;;5056073;28;20024;-68
2021/01/07 00:41:17;;;;;;;74.72;40.90;;;;;;;;;;5056071;28;20484;-68
2021/01/07 00:43:44;;;;;;;74.85;40.05;;;;;;;;;;5055999;28;20392;-69
2021/01/07 00:46:09;;;;;;;74.10;39.33;;;;;;;;;;5056126;28;20458;-68
2021/01/07 00:48:35;;;;;;;82.50;42.58;;;;;;;;;;5054874;28;20121;-68
2021/01/07 00:51:01;;;;;;;79.85;42.70;;;;;;;;;;5054577;28;20047;-68
2021/01/07 00:53:26;;;;;;;76.70;41.60;;;;;;;;;;5055783;28;20045;-68
2021/01/07 00:55:52;;;;;;;70.90;39.90;;;;;;;;;;5055598;28;20041;-68
2021/01/07 00:58:17;;;;;;;78.18;41.08;;;;;;;;;;5037745;28;20043;-68
2021/01/07 01:00:43;;;;;;;78.18;41.00;;;;;;;;;;5055700;28;20040;-68
2021/01/07 01:03:08;;;;;;;73.82;40.60;;;;;;;;;;5037618;28;20468;-68
2021/01/07 01:05:34;;;;;;;77.10;40.10;;;;;;;;;;5055675;28;20115;-68
2021/01/07 01:07:59;;;;;;;71.00;38.22;;;;;;;;;;5037696;28;20429;-68
2021/01/07 01:10:32;;;;;;;70.25;39.42;;;;;;;;;;5055413;28;20044;-68
2021/01/07 01:13:01;;;;;;;72.57;38.72;;;;;;;;;;5037436;28;20041;-67
2021/01/07 01:15:26;;;;;;;73.53;40.72;;;;;;;;;;5058057;28;20048;-67
2021/01/07 01:17:52;;;;;;;81.22;42.42;;;;;;;;;;5074196;28;20044;-67
2021/01/07 01:20:17;;;;;;;76.68;41.72;;;;;;;;;;5075319;28;20564;-67
2021/01/07 01:22:45;;;;;;;78.57;40.38;;;;;;;;;;5075406;28;20064;-67
2021/01/07 01:25:11;;;;;;;77.78;43.65;;;;;;;;;;5075342;28;20060;-66
2021/01/07 01:27:39;;;;;;;83.55;45.38;;;;;;;;;;5075275;28;20469;-67
2021/01/07 01:30:06;;;;;;;81.05;44.17;;;;;;;;;;5075425;28;20154;-67
2021/01/07 01:32:33;;;;;;;80.43;41.22;;;;;;;;;;5075206;28;20055;-67
2021/01/07 01:34:59;;;;;;;73.78;40.08;;;;;;;;;;5074858;28;20035;-67
2021/01/07 01:37:24;;;;;;;69.97;38.88;;;;;;;;;;5073976;28;20442;-66
2021/01/07 01:39:50;;;;;;;66.20;37.17;;;;;;;;;;5056999;28;20103;-67
2021/01/07 01:42:21;;;;;;;68.60;37.65;;;;;;;;;;5057249;28;20044;-66
2021/01/07 01:44:47;;;;;;;68.25;36.67;;;;;;;;;;5075143;28;20074;-66
2021/01/07 01:47:13;;;;;;;70.38;38.88;;;;;;;;;;5074767;28;20033;-66
2021/01/07 01:49:38;;;;;;;61.05;35.78;;;;;;;;;;5074826;28;20036;-67
2021/01/07 01:52:04;;;;;;;64.30;35.72;;;;;;;;;;5056823;28;20033;-67
2021/01/07 01:54:29;;;;;;;64.80;35.33;;;;;;;;;;5074821;28;20043;-66
2021/01/07 01:56:57;;;;;;;63.55;33.33;;;;;;;;;;5074517;28;20233;-66
2021/01/07 01:59:25;;;;;;;60.72;34.03;;;;;;;;;;5074606;28;20029;-66
2021/01/07 02:01:50;;;;;;;63.15;35.00;;;;;;;;;;5074574;28;20041;-66
2021/01/07 02:04:16;;;;;;;63.65;35.35;;;;;;;;;;5074451;28;20055;-66
2021/01/07 02:06:42;;;;;;;64.70;35.35;;;;;;;;;;5074387;28;20131;-66
2021/01/07 02:09:10;;;;;;;64.72;35.53;;;;;;;;;;5074382;28;20082;-66
2021/01/07 02:11:37;;;;;;;65.28;35.95;;;;;;;;;;5073462;28;20033;-66
2021/01/07 02:14:05;;;;;;;69.15;38.35;;;;;;;;;;5074436;28;20037;-67
2021/01/07 02:16:30;;;;;;;63.33;34.95;;;;;;;;;;5073789;28;20047;-68
2021/01/07 02:18:56;;;;;;;67.75;35.08;;;;;;;;;;5074278;28;20040;-68
2021/01/07 02:21:22;;;;;;;60.80;34.42;;;;;;;;;;5056359;28;20033;-68
2021/01/07 02:23:51;;;;;;;59.72;35.15;;;;;;;;;;5072873;28;20033;-68
2021/01/07 02:26:20;;;;;;;63.78;34.70;;;;;;;;;;5074098;28;20032;-68
2021/01/07 02:28:46;;;;;;;57.92;33.75;;;;;;;;;;5074109;28;20530;-67
2021/01/07 02:31:12;;;;;;;62.40;32.85;;;;;;;;;;5074016;28;20413;-67
2021/01/07 02:33:37;;;;;;;64.88;34.35;;;;;;;;;;5073870;28;20047;-69
2021/01/07 02:36:03;;;;;;;61.67;33.53;;;;;;;;;;5073746;28;20032;-69
2021/01/07 02:38:29;;;;;;;58.80;32.30;;;;;;;;;;5073855;28;20089;-69
2021/01/07 02:40:54;;;;;;;59.08;31.17;;;;;;;;;;5073702;28;20059;-69
2021/01/07 02:43:20;;;;;;;59.60;31.33;;;;;;;;;;5073714;28;20082;-69
2021/01/07 02:45:46;;;;;;;54.03;30.00;;;;;;;;;;5073958;28;20055;-67
2021/01/07 02:48:12;;;;;;;52.45;31.08;;;;;;;;;;5073523;28;20040;-68
2021/01/07 02:50:37;;;;;;;50.58;29.95;;;;;;;;;;5073727;28;20382;-68
2021/01/07 02:53:03;;;;;;;53.25;30.30;;;;;;;;;;5073572;28;20043;-67
2021/01/07 02:55:28;;;;;;;60.33;30.70;;;;;;;;;;5055561;28;20070;-67
2021/01/07 02:57:54;;;;;;;55.58;30.77;;;;;;;;;;5073771;28;20040;-68
2021/01/07 03:00:19;;;;;;;49.53;28.48;;;;;;;;;;5073545;28;20024;-68
2021/01/07 03:02:45;;;;;;;53.30;28.80;;;;;;;;;;5055521;28;20039;-67
2021/01/07 03:05:11;;;;;;;50.10;27.70;;;;;;;;;;5073514;28;20119;-67
2021/01/07 03:07:36;;;;;;;53.08;28.08;;;;;;;;;;5073400;28;20394;-67
2021/01/07 03:10:05;;;;;;;52.17;28.40;;;;;;;;;;5055363;28;20030;-67
2021/01/07 03:12:30;;;;;;;47.45;26.40;;;;;;;;;;5055488;28;20060;-67
2021/01/07 03:14:56;;;;;;;51.53;27.60;;;;;;;;;;5073135;28;20074;-66
2021/01/07 03:17:21;;;;;;;46.42;26.70;;;;;;;;;;5072900;28;20048;-67
2021/01/07 03:19:47;;;;;;;50.13;27.40;;;;;;;;;;5073174;28;20035;-67
2021/01/07 03:22:12;;;;;;;50.72;27.20;;;;;;;;;;5073321;28;20067;-67
2021/01/07 03:24:38;;;;;;;48.70;26.90;;;;;;;;;;5073155;28;20071;-68
2021/01/07 03:27:05;;;;;;;48.88;27.23;;;;;;;;;;5073069;28;20064;-68
2021/01/07 03:29:31;;;;;;;48.60;26.75;;;;;;;;;;5073094;28;20048;-67
2021/01/07 03:31:56;;;;;;;47.13;27.70;;;;;;;;;;5073126;28;20048;-68
2021/01/07 03:34:22;;;;;;;47.10;26.33;;;;;;;;;;5073220;28;20033;-68
2021/01/07 03:36:48;;;;;;;49.97;26.25;;;;;;;;;;5073029;28;20039;-68
2021/01/07 03:39:13;;;;;;;48.22;26.83;;;;;;;;;;5071915;28;20033;-68
2021/01/07 03:41:39;;;;;;;44.85;24.25;;;;;;;;;;5073119;28;20025;-68
2021/01/07 03:44:05;;;;;;;47.35;26.20;;;;;;;;;;5071877;28;20020;-68
2021/01/07 03:46:30;;;;;;;49.63;25.88;;;;;;;;;;5073032;28;20032;-68
2021/01/07 03:49:00;;;;;;;44.47;24.90;;;;;;;;;;5072938;28;20501;-69
2021/01/07 03:51:26;;;;;;;49.15;25.90;;;;;;;;;;5073080;28;20040;-69
2021/01/07 03:53:51;;;;;;;45.97;25.48;;;;;;;;;;5073173;28;20024;-68
2021/01/07 03:56:17;;;;;;;43.50;24.27;;;;;;;;;;5054750;28;20046;-67
2021/01/07 03:58:42;;;;;;;42.40;24.42;;;;;;;;;;5072481;28;20079;-67
2021/01/07 04:01:08;;;;;;;46.15;23.67;;;;;;;;;;5075469;28;20037;-67
2021/01/07 04:03:33;;;;;;;45.33;24.88;;;;;;;;;;5076857;28;20086;-67
2021/01/07 04:05:59;;;;;;;44.58;24.58;;;;;;;;;;5076947;28;20028;-68
2021/01/07 04:08:25;;;;;;;49.10;25.20;;;;;;;;;;5076592;28;20029;-68
2021/01/07 04:10:53;;;;;;;50.58;25.27;;;;;;;;;;5076664;28;20532;-67
2021/01/07 04:13:19;;;;;;;43.38;24.65;;;;;;;;;;5076627;28;20028;-67
2021/01/07 04:15:44;;;;;;;46.05;25.10;;;;;;;;;;5058027;28;20368;-67
2021/01/07 04:18:10;;;;;;;44.22;24.60;;;;;;;;;;5075495;28;20037;-68
2021/01/07 04:20:35;;;;;;;44.30;25.75;;;;;;;;;;5076449;28;20256;-67
2021/01/07 04:23:01;;;;;;;49.90;27.90;;;;;;;;;;5076464;28;20063;-68
2021/01/07 04:25:26;;;;;;;47.00;27.98;;;;;;;;;;5058455;28;20043;-64
2021/01/07 04:27:52;;;;;;;46.40;27.05;;;;;;;;;;5076197;28;20501;-67
2021/01/07 04:30:18;;;;;;;43.22;25.70;;;;;;;;;;5076329;28;20044;-67
2021/01/07 04:32:43;;;;;;;44.25;25.05;;;;;;;;;;5076227;28;20036;-68
2021/01/07 04:35:10;;;;;;;46.30;25.23;;;;;;;;;;5076019;28;20387;-68
2021/01/07 04:37:36;;;;;;;43.55;26.20;;;;;;;;;;5076365;28;20025;-69
2021/01/07 04:40:02;;;;;;;44.72;25.42;;;;;;;;;;5058109;28;20101;-69
2021/01/07 04:42:27;;;;;;;43.13;23.17;;;;;;;;;;5076216;28;20031;-69
2021/01/07 04:44:53;;;;;;;42.25;23.45;;;;;;;;;;5076255;28;20028;-69
2021/01/07 04:47:19;;;;;;;41.45;23.27;;;;;;;;;;5076377;28;20036;-69
2021/01/07 04:49:45;;;;;;;37.42;22.13;;;;;;;;;;5058145;28;20048;-69
2021/01/07 04:52:11;;;;;;;40.17;22.98;;;;;;;;;;5074515;28;20049;-69
2021/01/07 04:54:40;;;;;;;41.60;23.73;;;;;;;;;;5057445;28;20106;-69
2021/01/07 04:57:06;;;;;;;38.15;23.20;;;;;;;;;;5075866;28;20060;-69
2021/01/07 04:59:31;;;;;;;40.47;23.17;;;;;;;;;;5075889;28;20106;-68
2021/01/07 05:02:00;;;;;;;39.35;24.67;;;;;;;;;;5075622;28;20455;-68
2021/01/07 05:04:26;;;;;;;39.97;23.40;;;;;;;;;;5074438;28;20044;-67
2021/01/07 05:06:51;;;;;;;38.20;23.48;;;;;;;;;;5075687;28;20040;-68
2021/01/07 05:09:17;;;;;;;41.70;22.35;;;;;;;;;;5075582;28;20371;-68
2021/01/07 05:11:42;;;;;;;36.03;20.40;;;;;;;;;;5075477;28;20545;-67
2021/01/07 05:14:09;;;;;;;37.15;23.25;;;;;;;;;;5057534;28;20127;-67
2021/01/07 05:16:34;;;;;;;41.42;24.05;;;;;;;;;;5061192;28;20045;-67
2021/01/07 05:19:04;;;;;;;44.67;26.98;;;;;;;;;;5055355;28;20033;-67
2021/01/07 05:21:29;;;;;;;43.70;25.83;;;;;;;;;;5054174;28;20037;-67
2021/01/07 05:23:56;;;;;;;44.50;26.48;;;;;;;;;;5055428;28;20043;-67
2021/01/07 05:26:22;;;;;;;45.03;26.95;;;;;;;;;;5055271;28;20054;-67
2021/01/07 05:28:49;;;;;;;42.63;24.73;;;;;;;;;;5055307;28;20044;-67
2021/01/07 05:31:18;;;;;;;40.30;24.08;;;;;;;;;;5055252;28;20025;-68
2021/01/07 05:33:44;;;;;;;40.90;23.45;;;;;;;;;;5055061;28;20076;-68
2021/01/07 05:36:15;;;;;;;29.17;16.50;;;;;;;;;;5054591;28;20060;-68
2021/01/07 05:38:41;;;;;;;34.90;21.23;;;;;;;;;;5054184;28;20178;-68
2021/01/07 05:41:11;;;;;;;36.67;19.77;;;;;;;;;;5054324;28;20536;-67
2021/01/07 05:43:36;;;;;;;32.58;19.83;;;;;;;;;;5053084;28;20037;-67
2021/01/07 05:46:02;;;;;;;36.47;20.58;;;;;;;;;;5054454;28;20032;-67
2021/01/07 05:48:30;;;;;;;32.80;20.23;;;;;;;;;;5053827;28;20068;-68
2021/01/07 05:50:56;;;;;;;33.35;19.65;;;;;;;;;;5054957;28;20029;-67
2021/01/07 05:53:21;;;;;;;35.67;20.42;;;;;;;;;;5054785;28;20094;-67
2021/01/07 05:55:47;;;;;;;35.78;21.13;;;;;;;;;;5053368;28;20468;-68
2021/01/07 05:58:13;;;;;;;34.13;20.90;;;;;;;;;;5036967;28;20034;-69
2021/01/07 06:00:40;;;;;;;34.80;21.02;;;;;;;;;;5054658;28;20028;-68
2021/01/07 06:03:07;;;;;;;34.50;21.10;;;;;;;;;;5054685;28;20033;-68
2021/01/07 06:05:32;;;;;;;30.50;18.27;;;;;;;;;;5054609;28;20438;-69
2021/01/07 06:07:59;;;;;;;36.33;20.80;;;;;;;;;;5054445;28;20040;-69
2021/01/07 06:10:25;;;;;;;41.60;22.70;;;;;;;;;;5054507;28;20029;-69
2021/01/07 06:12:51;;;;;;;37.83;21.02;;;;;;;;;;5054296;28;20041;-68
2021/01/07 06:15:18;;;;;;;31.98;18.67;;;;;;;;;;5037949;28;20044;-69
2021/01/07 06:17:44;;;;;;;30.70;17.33;;;;;;;;;;5086990;28;20062;-68
2021/01/07 06:20:19;;;;;;;33.25;18.70;;;;;;;;;;5093251;28;20056;-68
2021/01/07 06:22:45;;;;;;;32.33;18.00;;;;;;;;;;5075739;28;20082;-68
2021/01/07 06:25:12;;;;;;;23.70;13.70;;;;;;;;;;5094279;28;20028;-68
2021/01/07 06:27:40;;;;;;;27.88;16.70;;;;;;;;;;5094273;28;20044;-68
2021/01/07 06:30:05;;;;;;;31.48;18.58;;;;;;;;;;5094282;28;20077;-68
2021/01/07 06:32:31;;;;;;;32.20;18.25;;;;;;;;;;5094022;28;20043;-68
2021/01/07 06:34:59;;;;;;;30.25;18.65;;;;;;;;;;5094059;28;20119;-68
2021/01/07 06:37:31;;;;;;;29.30;15.40;;;;;;;;;;5094325;28;20062;-68
2021/01/07 06:39:58;;;;;;;39.13;20.58;;;;;;;;;;5094175;28;20059;-68
2021/01/07 06:42:23;;;;;;;36.72;20.10;;;;;;;;;;5093603;28;20040;-69
2021/01/07 06:44:50;;;;;;;29.15;15.80;;;;;;;;;;5093950;28;20383;-68
2021/01/07 06:47:16;;;;;;;32.67;15.60;;;;;;;;;;5075461;28;20024;-70
2021/01/07 06:49:43;;;;;;;40.95;21.08;;;;;;;;;;5093828;28;20069;-69
2021/01/07 06:52:08;;;;;;;30.67;16.27;;;;;;;;;;5093968;28;20028;-69
2021/01/07 06:54:39;;;;;;;38.90;21.50;;;;;;;;;;5093810;28;20043;-72
2021/01/07 06:57:07;;;;;;;36.20;19.38;;;;;;;;;;5092591;28;20028;-71
2021/01/07 06:59:33;;;;;;;38.13;20.67;;;;;;;;;;5093666;28;20023;-71
2021/01/07 07:01:59;;;;;;;30.45;16.50;;;;;;;;;;5093695;28;20032;-72
2021/01/07 07:04:25;;;;;;;32.00;16.08;;;;;;;;;;5075594;28;20028;-72
2021/01/07 07:06:58;;;;;;;31.30;16.60;;;;;;;;;;5058777;28;20509;-71
2021/01/07 07:09:25;;;;;;;32.28;17.10;;;;;;;;;;5093655;28;20032;-72
2021/01/07 07:11:51;;;;;;;32.42;16.42;;;;;;;;;;5075428;28;20475;-71
2021/01/07 07:14:18;;;;;;;22.00;12.20;;;;;;;;;;5093558;28;20040;-71
2021/01/07 07:16:46;;;;;;;21.10;12.32;;;;;;;;;;5088589;28;20094;-71
2021/01/07 07:19:21;;;;;;;21.10;11.50;;;;;;;;;;5072363;28;20039;-71
2021/01/07 07:21:56;;;;;;;16.45;9.35;;;;;;;;;;5073227;28;20041;-71
2021/01/07 07:24:35;;;;;;;18.27;9.90;;;;;;;;;;5073292;28;20039;-72
2021/01/07 07:27:02;;;;;;;12.60;8.25;;;;;;;;;;5073422;28;20036;-71
2021/01/07 07:29:31;;;;;;;13.20;8.25;;;;;;;;;;5071584;28;20501;-71
2021/01/07 07:31:57;;;;;;;15.00;8.10;;;;;;;;;;5072137;28;20061;-72
2021/01/07 07:34:30;;;;;;;11.93;7.78;;;;;;;;;;5071140;28;20024;-72
2021/01/07 07:36:55;;;;;;;13.63;8.68;;;;;;;;;;5072719;28;20510;-72
2021/01/07 07:39:24;;;;;;;10.00;7.45;;;;;;;;;;5072938;28;20036;-72
2021/01/07 07:42:05;;;;;;;9.63;6.80;;;;;;;;;;5071929;28;20037;-71
2021/01/07 07:44:32;;;;;;;9.50;6.43;;;;;;;;;;5071885;28;20433;-71
2021/01/07 07:46:58;;;;;;;9.90;6.53;;;;;;;;;;5073001;28;20024;-71
2021/01/07 07:49:23;;;;;;;8.55;6.20;;;;;;;;;;5073387;28;20477;-71
2021/01/07 07:51:51;;;;;;;8.25;6.45;;;;;;;;;;5073158;28;20115;-72
2021/01/07 07:54:16;;;;;;;9.45;6.90;;;;;;;;;;5071703;28;20070;-72
2021/01/07 07:56:42;;;;;;;10.35;6.88;;;;;;;;;;5072670;28;20029;-71
2021/01/07 07:59:08;;;;;;;10.27;6.10;;;;;;;;;;5072839;28;20032;-71
2021/01/07 08:05:08;;;;;;;10.00;6.63;;;;;;;;;;5073494;28;20434;-72
2021/01/07 08:11:09;;;;;;;11.88;6.75;;;;;;;;;;5073424;28;20482;-72
2021/01/07 08:30:42;;;;;;;7.03;6.05;;;;;;;;;;5093217;28;20027;-72
2021/01/07 08:36:43;;;;;;;8.25;6.32;;;;;;;;;;5093147;28;20150;-72
2021/01/07 08:42:43;;;;;;;6.40;5.72;;;;;;;;;;5093385;28;20030;-72
2021/01/07 08:48:45;;;;;;;8.85;7.53;;;;;;;;;;5096943;28;20027;-72
2021/01/07 08:51:32;;;;;;;9.15;6.57;;;;;;;;;;5096533;28;20051;-71
2021/01/07 08:53:57;;;;;;;7.60;6.07;;;;;;;;;;5077781;28;20051;-72
2021/01/07 08:56:32;;;;;;;10.07;7.22;;;;;;;;;;5096094;28;20027;-72
2021/01/07 08:59:17;;;;;;;6.20;5.22;;;;;;;;;;5096020;28;20039;-72
2021/01/07 09:01:52;;;;;;;6.20;5.22;;;;;;;;;;5096037;28;20040;-72
2021/01/07 09:04:21;;;;;;;6.00;5.40;;;;;;;;;;5095902;28;20036;-67
2021/01/07 09:06:56;;;;;;;7.88;6.32;;;;;;;;;;5078257;28;20064;-67
2021/01/07 09:09:22;;;;;;;8.57;5.68;;;;;;;;;;5096094;28;20036;-67
2021/01/07 09:11:47;;;;;;;7.63;5.93;;;;;;;;;;5095989;28;20028;-67
2021/01/07 09:14:13;;;;;;;6.65;5.90;;;;;;;;;;5095660;28;20043;-67
2021/01/07 09:16:38;;;;;;;8.13;6.38;;;;;;;;;;5095583;28;20431;-66
2021/01/07 09:19:07;;;;;;;8.43;6.57;;;;;;;;;;5095584;28;20485;-67
2021/01/07 09:21:37;;;;;;;7.28;6.10;;;;;;;;;;5095591;28;20024;-67
2021/01/07 09:24:03;;;;;;;8.93;6.70;;;;;;;;;;5095503;28;20036;-67
2021/01/07 09:26:29;;;;;;;5.97;5.38;;;;;;;;;;5090348;28;20097;-67
2021/01/07 09:28:55;;;;;;;5.97;5.40;;;;;;;;;;5095481;28;20126;-67
2021/01/07 09:31:20;;;;;;;6.75;5.68;;;;;;;;;;5095520;28;20158;-67
2021/01/07 09:33:46;;;;;;;6.85;6.15;;;;;;;;;;5094811;28;20039;-66
2021/01/07 09:36:11;;;;;;;6.25;5.60;;;;;;;;;;5095026;28;20036;-67
2021/01/07 09:38:37;;;;;;;6.63;5.20;;;;;;;;;;5094810;28;20028;-69
2021/01/07 09:41:03;;;;;;;6.43;5.82;;;;;;;;;;5095265;28;20466;-71
2021/01/07 09:43:32;;;;;;;7.07;5.97;;;;;;;;;;5095083;28;20050;-70
2021/01/07 09:45:58;;;;;;;7.50;5.75;;;;;;;;;;5095142;28;20486;-70
2021/01/07 09:48:23;;;;;;;6.00;5.03;;;;;;;;;;5076872;28;20054;-70
2021/01/07 09:50:48;;;;;;;6.55;5.30;;;;;;;;;;5094839;28;20039;-70
2021/01/07 09:53:16;;;;;;;7.18;5.57;;;;;;;;;;5094882;28;20075;-71
2021/01/07 09:55:42;;;;;;;6.05;5.20;;;;;;;;;;5076781;28;20081;-71
2021/01/07 09:58:07;;;;;;;6.50;5.28;;;;;;;;;;5075747;28;20036;-68
2021/01/07 10:00:32;;;;;;;4.88;4.30;;;;;;;;;;5094631;28;20039;-68
2021/01/07 10:02:58;;;;;;;6.13;5.38;;;;;;;;;;5094687;28;20379;-68
2021/01/07 10:05:23;;;;;;;7.15;5.53;;;;;;;;;;5094624;28;20028;-69
2021/01/07 10:07:50;;;;;;;6.75;5.72;;;;;;;;;;5094369;28;20546;-71
2021/01/07 10:10:16;;;;;;;6.35;5.40;;;;;;;;;;5076530;28;20028;-71
2021/01/07 10:12:42;;;;;;;6.07;5.43;;;;;;;;;;5076362;28;20118;-71
2021/01/07 10:15:08;;;;;;;7.15;6.15;;;;;;;;;;5094613;28;20438;-71
2021/01/07 10:17:33;;;;;;;8.18;6.78;;;;;;;;;;5094441;28;20035;-71
2021/01/07 10:19:59;;;;;;;7.25;6.53;;;;;;;;;;5094399;28;20020;-68
2021/01/07 10:22:25;;;;;;;7.18;5.97;;;;;;;;;;5076356;28;20036;-68
2021/01/07 10:24:53;;;;;;;7.70;6.00;;;;;;;;;;5094669;28;20034;-70
2021/01/07 10:27:19;;;;;;;6.05;5.20;;;;;;;;;;5059082;28;20051;-70
2021/01/07 10:29:45;;;;;;;6.68;5.78;;;;;;;;;;5094304;28;20036;-71
2021/01/07 10:32:12;;;;;;;6.72;5.13;;;;;;;;;;5076288;28;20048;-71
2021/01/07 10:34:39;;;;;;;5.50;4.65;;;;;;;;;;5094144;28;20036;-71
2021/01/07 10:37:05;;;;;;;4.80;4.13;;;;;;;;;;5093993;28;20028;-71
2021/01/07 10:39:32;;;;;;;4.25;3.85;;;;;;;;;;5094154;28;20103;-71
2021/01/07 10:41:58;;;;;;;4.68;4.20;;;;;;;;;;5093683;28;20048;-70
2021/01/07 10:44:26;;;;;;;4.78;4.38;;;;;;;;;;5075851;28;20122;-70
2021/01/07 10:46:52;;;;;;;5.93;4.45;;;;;;;;;;5094040;28;20083;-70
2021/01/07 10:49:19;;;;;;;4.55;4.15;;;;;;;;;;5093852;28;20109;-71
2021/01/07 10:52:06;;;;;;;5.32;4.43;;;;;;;;;;5093948;28;20551;-70
2021/01/07 10:54:51;;;;;;;4.90;4.43;;;;;;;;;;5083478;28;20413;-70
2021/01/07 10:57:28;;;;;;;10.93;5.82;;;;;;;;;;5094056;28;20032;-71
2021/01/07 11:00:08;;;;;;;8.45;5.78;;;;;;;;;;5093718;28;20040;-71
2021/01/07 11:02:52;;;;;;;5.07;4.57;;;;;;;;;;5075740;28;20039;-71
2021/01/07 11:05:20;;;;;;;9.85;5.88;;;;;;;;;;5093896;28;20371;-71
2021/01/07 11:08:02;;;;;;;5.93;4.22;;;;;;;;;;5093879;28;20039;-70
2021/01/07 11:10:28;;;;;;;6.63;5.38;;;;;;;;;;5058767;28;20474;-70
2021/01/07 11:13:02;;;;;;;7.82;4.80;;;;;;;;;;5093537;28;20482;-70
2021/01/07 11:15:28;;;;;;;6.43;4.47;;;;;;;;;;5093585;28;20032;-70
2021/01/07 11:18:22;;;;;;;5.70;4.95;;;;;;;;;;5093523;28;20024;-70
2021/01/07 11:20:49;;;;;;;7.45;5.43;;;;;;;;;;5079731;28;20039;-70
2021/01/07 11:23:15;;;;;;;5.40;4.40;;;;;;;;;;5093417;28;20484;-70
2021/01/07 11:25:41;;;;;;;10.32;6.65;;;;;;;;;;5074988;28;20068;-71
2021/01/07 11:28:06;;;;;;;7.50;4.93;;;;;;;;;;5093501;28;20047;-70
2021/01/07 11:30:32;;;;;;;4.72;3.88;;;;;;;;;;5075302;28;20032;-70
2021/01/07 11:33:01;;;;;;;5.22;4.47;;;;;;;;;;5093645;28;20032;-70
2021/01/07 11:35:27;;;;;;;6.35;4.30;;;;;;;;;;5093462;28;20051;-70
2021/01/07 11:38:00;;;;;;;4.43;3.97;;;;;;;;;;5092983;28;20020;-69
2021/01/07 11:40:28;;;;;;;4.03;3.30;;;;;;;;;;5075226;28;20101;-70
2021/01/07 11:43:12;;;;;;;4.93;3.70;;;;;;;;;;5093259;28;20447;-71
2021/01/07 11:45:40;;;;;;;4.30;3.83;;;;;;;;;;5075198;28;20539;-70
2021/01/07 11:48:09;;;;;;;4.10;3.75;;;;;;;;;;5092881;28;20043;-70
2021/01/07 11:50:41;;;;;;;3.85;3.50;;;;;;;;;;5072118;28;20032;-71
2021/01/07 11:53:07;;;;;;;5.15;3.72;;;;;;;;;;5072632;28;20119;-71
2021/01/07 11:55:33;;;;;;;8.45;6.28;;;;;;;;;;5072126;28;20448;-70
2021/01/07 11:57:59;;;;;;;7.40;5.40;;;;;;;;;;5072433;28;20037;-70
2021/01/07 12:00:24;;;;;;;8.35;5.72;;;;;;;;;;5052669;28;20032;-70
2021/01/07 12:02:50;;;;;;;8.40;5.05;;;;;;;;;;5056009;28;20483;-70
2021/01/07 12:05:19;;;;;;;8.13;5.60;;;;;;;;;;5072693;28;20021;-70
2021/01/07 12:07:54;;;;;;;7.18;4.88;;;;;;;;;;5071330;28;20044;-70
2021/01/07 12:10:21;;;;;;;5.13;4.63;;;;;;;;;;5072724;28;20474;-70
2021/01/07 12:12:57;;;;;;;6.53;5.13;;;;;;;;;;5054547;28;20032;-70
2021/01/07 12:15:22;;;;;;;6.82;4.93;;;;;;;;;;5072123;28;20039;-69
2021/01/07 12:17:49;;;;;;;8.98;6.28;;;;;;;;;;5071348;28;20471;-68
2021/01/07 12:20:15;;;;;;;6.47;5.25;;;;;;;;;;5072700;28;20120;-69
2021/01/07 12:22:42;;;;;;;7.72;5.22;;;;;;;;;;5075963;28;20071;-69
2021/01/07 12:25:08;;;;;;;7.78;6.10;;;;;;;;;;5076531;28;20045;-69
2021/01/07 12:27:35;;;;;;;10.95;7.53;;;;;;;;;;5075821;28;20459;-69
2021/01/07 12:30:04;;;;;;;8.98;6.82;;;;;;;;;;5058473;28;20131;-69
2021/01/07 12:32:32;;;;;;;15.20;8.77;;;;;;;;;;5076371;28;20123;-69
2021/01/07 12:35:02;;;;;;;12.65;8.18;;;;;;;;;;5074910;28;20123;-69
2021/01/07 12:37:29;;;;;;;11.57;8.07;;;;;;;;;;5075960;28;20041;-69
2021/01/07 12:40:09;;;;;;;10.68;6.50;;;;;;;;;;5076206;28;20032;-69
2021/01/07 12:42:43;;;;;;;11.05;6.53;;;;;;;;;;5076310;28;20486;-69
2021/01/07 12:45:10;;;;;;;9.32;6.97;;;;;;;;;;5076401;28;20398;-68
2021/01/07 12:47:35;;;;;;;9.45;7.28;;;;;;;;;;5058129;28;20471;-69
2021/01/07 12:50:02;;;;;;;10.40;7.13;;;;;;;;;;5076178;28;20039;-69
2021/01/07 12:52:29;;;;;;;11.45;7.30;;;;;;;;;;5075969;28;20025;-68
2021/01/07 12:54:56;;;;;;;11.57;8.73;;;;;;;;;;5075901;28;20512;-69
2021/01/07 12:57:24;;;;;;;11.38;7.20;;;;;;;;;;5075939;28;20433;-68
2021/01/07 13:00:16;;;;;;;14.45;9.13;;;;;;;;;;5075841;28;20051;-68
2021/01/07 13:02:45;;;;;;;11.90;8.68;;;;;;;;;;5072684;28;20039;-68
2021/01/07 13:05:31;;;;;;;12.68;9.55;;;;;;;;;;5075847;28;20032;-69
2021/01/07 13:08:00;;;;;;;16.10;10.73;;;;;;;;;;5075534;28;20046;-69
2021/01/07 13:10:29;;;;;;;17.42;10.27;;;;;;;;;;5057793;28;20028;-68
2021/01/07 13:12:58;;;;;;;15.43;9.90;;;;;;;;;;5075546;28;20036;-69
2021/01/07 13:15:24;;;;;;;16.07;11.27;;;;;;;;;;5057747;28;20050;-69
2021/01/07 13:17:50;;;;;;;18.13;10.27;;;;;;;;;;5075624;28;20028;-69
2021/01/07 13:20:16;;;;;;;13.68;9.43;;;;;;;;;;5075634;28;20025;-68
2021/01/07 13:22:44;;;;;;;14.15;9.75;;;;;;;;;;5075520;28;20028;-69
2021/01/07 13:25:10;;;;;;;15.82;10.10;;;;;;;;;;5075525;28;20383;-69
2021/01/07 13:27:37;;;;;;;14.27;9.38;;;;;;;;;;5091499;28;20108;-69
2021/01/07 13:30:03;;;;;;;14.65;9.48;;;;;;;;;;5095552;28;20482;-69
2021/01/07 13:32:29;;;;;;;16.63;9.80;;;;;;;;;;5094490;28;20035;-68
2021/01/07 13:34:55;;;;;;;14.07;9.25;;;;;;;;;;5095001;28;20555;-69
2021/01/07 13:37:21;;;;;;;16.15;10.40;;;;;;;;;;5095485;28;20154;-68
2021/01/07 13:39:46;;;;;;;13.30;9.40;;;;;;;;;;5095341;28;20490;-69
2021/01/07 13:42:13;;;;;;;15.20;10.00;;;;;;;;;;5095223;28;20031;-69
2021/01/07 13:44:41;;;;;;;17.75;10.52;;;;;;;;;;5095701;28;20032;-69
2021/01/07 13:47:08;;;;;;;15.18;9.35;;;;;;;;;;5095246;28;20093;-68
2021/01/07 13:49:34;;;;;;;16.63;9.60;;;;;;;;;;5095227;28;20024;-69
2021/01/07 13:52:03;;;;;;;14.10;9.52;;;;;;;;;;5094980;28;20028;-69
2021/01/07 13:54:29;;;;;;;15.35;9.88;;;;;;;;;;5094949;28;20083;-69
2021/01/07 13:56:56;;;;;;;16.75;10.45;;;;;;;;;;5094780;28;20478;-69
2021/01/07 13:59:21;;;;;;;14.38;8.63;;;;;;;;;;5094907;28;20040;-68
2021/01/07 14:01:47;;;;;;;15.48;10.20;;;;;;;;;;5076792;28;20409;-68
2021/01/07 14:04:13;;;;;;;19.63;13.18;;;;;;;;;;5094948;28;20074;-69
2021/01/07 14:06:38;;;;;;;14.55;9.35;;;;;;;;;;5094669;28;20063;-69
2021/01/07 14:09:05;;;;;;;16.77;10.23;;;;;;;;;;5076543;28;20139;-69
2021/01/07 14:11:32;;;;;;;21.30;12.38;;;;;;;;;;5094790;28;20119;-69
2021/01/07 14:14:00;;;;;;;16.98;11.13;;;;;;;;;;5094397;28;20383;-69
2021/01/07 14:16:26;;;;;;;12.38;8.82;;;;;;;;;;5076443;28;20035;-68
2021/01/07 14:18:52;;;;;;;17.42;13.18;;;;;;;;;;5094369;28;20394;-68
2021/01/07 14:21:17;;;;;;;16.20;10.95;;;;;;;;;;5080475;28;20024;-69
2021/01/07 14:23:43;;;;;;;11.98;9.85;;;;;;;;;;5094354;28;20457;-69
2021/01/07 14:26:09;;;;;;;12.27;8.10;;;;;;;;;;5093865;28;20452;-70
2021/01/07 14:28:48;;;;;;;16.35;11.23;;;;;;;;;;5058858;28;20035;-70
2021/01/07 14:31:13;;;;;;;12.85;9.38;;;;;;;;;;5093913;28;20077;-71
2021/01/07 14:33:40;;;;;;;13.68;10.18;;;;;;;;;;5075102;28;20040;-69
2021/01/07 14:36:08;;;;;;;12.13;9.52;;;;;;;;;;5093742;28;20028;-68
2021/01/07 14:38:34;;;;;;;14.18;9.13;;;;;;;;;;5073656;28;20112;-69
2021/01/07 14:41:03;;;;;;;16.35;10.32;;;;;;;;;;5094233;28;20036;-69
2021/01/07 14:43:30;;;;;;;16.58;10.95;;;;;;;;;;5075604;28;20020;-69
2021/01/07 14:45:56;;;;;;;19.52;11.48;;;;;;;;;;5093931;28;20038;-69
2021/01/07 14:48:26;;;;;;;19.67;12.63;;;;;;;;;;5094346;28;20428;-69
2021/01/07 14:50:52;;;;;;;19.83;13.32;;;;;;;;;;5075991;28;20044;-69
2021/01/07 14:53:20;;;;;;;19.88;12.80;;;;;;;;;;5093949;28;20128;-69
2021/01/07 14:55:48;;;;;;;17.35;11.00;;;;;;;;;;5093801;28;20037;-69
2021/01/07 14:58:19;;;;;;;15.85;10.38;;;;;;;;;;5093852;28;20375;-69
2021/01/07 15:00:48;;;;;;;14.20;9.90;;;;;;;;;;5075614;28;20028;-69
2021/01/07 15:03:34;;;;;;;14.75;10.27;;;;;;;;;;5093816;28;20024;-69